createdAt,value
2022-11-12T00:03:59.241Z,97278.56
2022-11-12T00:09:19.108Z,97282.31
2022-11-12T00:14:38.810Z,97286.56
2022-11-12T00:19:58.709Z,97283.41
2022-11-12T00:25:18.573Z,97280.19
2022-11-12T00:30:40.101Z,97287.28
2022-11-12T00:36:00.183Z,97279.63
2022-11-12T00:41:20.071Z,97282.41
2022-11-12T00:46:39.787Z,97285.53
2022-11-12T00:51:59.726Z,97287.44
2022-11-12T00:57:19.479Z,97281.53
2022-11-12T01:02:44.182Z,97280.03
2022-11-12T01:08:06.207Z,97267.88
2022-11-12T01:13:26.017Z,97265.75
2022-11-12T01:18:47.300Z,97280.84
2022-11-12T01:24:08.219Z,97277.13
2022-11-12T01:29:27.987Z,97272.53
2022-11-12T01:34:47.717Z,97266.44
2022-11-12T01:40:08.342Z,97261.09
2022-11-12T01:45:28.397Z,97259.66
2022-11-12T01:50:48.699Z,97249.69
2022-11-12T01:56:08.975Z,97253.72
2022-11-12T02:01:28.833Z,97243.03
2022-11-12T02:06:50.963Z,97249.41
2022-11-12T02:12:11.135Z,97246.91
2022-11-12T02:17:31.256Z,97258.88
2022-11-12T02:22:51.134Z,97255.38
2022-11-12T02:28:10.957Z,97250.69
2022-11-12T02:33:30.972Z,97247.84
2022-11-12T02:38:50.888Z,97251.47
2022-11-12T02:44:10.653Z,97248.63
2022-11-12T02:49:30.424Z,97252.69
2022-11-12T02:54:50.420Z,97244.13
2022-11-12T03:00:12.669Z,97239.97
2022-11-12T03:05:34.797Z,97244.38
2022-11-12T03:10:54.961Z,97234.50
2022-11-12T03:16:14.720Z,97233.72
2022-11-12T03:21:34.662Z,97232.34
2022-11-12T03:26:54.488Z,97228.69
2022-11-12T03:32:14.397Z,97229.97
2022-11-12T03:37:34.209Z,97239.47
2022-11-12T03:42:54.319Z,97236.44
2022-11-12T03:48:14.381Z,97235.13
2022-11-12T03:53:34.117Z,97230.66
2022-11-12T03:58:53.928Z,97241.66
2022-11-12T04:04:13.765Z,97232.09
2022-11-12T04:09:33.939Z,97221.06
2022-11-12T04:14:53.818Z,97229.44
2022-11-12T04:20:13.702Z,97225.97
2022-11-12T04:25:33.572Z,97215.72
2022-11-12T04:30:53.408Z,97219.31
2022-11-12T04:36:13.366Z,97213.09
2022-11-12T04:41:33.153Z,97213.25
2022-11-12T04:46:52.940Z,97209.63
2022-11-12T04:52:12.746Z,97203.59
2022-11-12T04:57:32.777Z,97203.69
2022-11-12T05:02:52.804Z,97203.31
2022-11-12T05:08:12.623Z,97204.56
2022-11-12T05:13:32.431Z,97205.44
2022-11-12T05:18:52.289Z,97209.84
2022-11-12T05:24:27.711Z,97203.44
2022-11-12T05:29:52.101Z,97214.09
2022-11-12T05:35:11.813Z,97213.63
2022-11-12T05:40:31.572Z,97219.41
2022-11-12T05:45:51.248Z,97229.44
2022-11-12T05:51:13.395Z,97222.16
2022-11-12T05:56:34.326Z,97225.28
2022-11-12T06:01:54.240Z,97227.91
2022-11-12T06:07:14.005Z,97221.63
2022-11-12T06:12:33.882Z,97219.22
2022-11-12T06:17:54.438Z,97224.84
2022-11-12T06:23:14.554Z,97222.59
2022-11-12T06:28:34.325Z,97212.28
2022-11-12T06:33:54.091Z,97209.81
2022-11-12T06:39:13.990Z,97217.69
2022-11-12T06:44:34.136Z,97236.72
2022-11-12T06:49:54.032Z,97233.53
2022-11-12T06:55:14.337Z,97234.19
2022-11-12T07:00:34.175Z,97228.94
2022-11-12T07:05:54.093Z,97233.47
2022-11-12T07:11:13.846Z,97241.34
2022-11-12T07:16:33.963Z,97235.94
2022-11-12T07:21:54.002Z,97222.97
2022-11-12T07:27:13.968Z,97217.81
2022-11-12T07:32:36.273Z,97220.66
2022-11-12T07:38:00.214Z,97219.97
2022-11-12T07:43:19.979Z,97221.88
2022-11-12T07:48:40.688Z,97221.72
2022-11-12T07:54:00.520Z,97223.41
2022-11-12T07:59:20.351Z,97226.69
2022-11-12T08:04:40.131Z,97220.38
2022-11-12T08:09:59.994Z,97225.66
2022-11-12T08:15:19.772Z,97212.88
2022-11-12T08:20:39.745Z,97220.13
2022-11-12T08:26:01.059Z,97233.06
2022-11-12T08:31:22.244Z,97207.91
2022-11-12T08:36:42.051Z,97233.41
2022-11-12T08:42:01.827Z,97231.63
2022-11-12T08:47:21.487Z,97229.41
2022-11-12T08:52:41.467Z,97226.19
2022-11-12T08:58:01.948Z,97222.81
2022-11-12T09:03:24.603Z,97234.06
2022-11-12T09:08:44.253Z,97236.84
2022-11-12T09:14:04.165Z,97230.38
2022-11-12T09:19:23.809Z,97230.09
2022-11-12T09:24:43.538Z,97235.13
2022-11-12T09:30:03.961Z,97238.28
2022-11-12T09:35:23.751Z,97249.91
2022-11-12T09:40:52.654Z,97247.75
2022-11-12T09:46:38.910Z,97245.09
2022-11-12T09:52:14.152Z,97245.31
2022-11-12T09:57:34.443Z,97233.13
2022-11-12T10:02:54.298Z,97230.16
2022-11-12T10:08:37.690Z,97237.66
2022-11-12T10:14:13.134Z,97229.44
2022-11-12T10:20:00.818Z,97215.63
2022-11-12T10:25:21.068Z,97194.34
2022-11-12T10:30:42.774Z,97190.00
2022-11-12T10:36:26.238Z,97194.16
2022-11-12T10:41:46.489Z,97177.84
2022-11-12T10:47:18.505Z,97173.06
2022-11-12T10:52:38.397Z,97172.31
2022-11-12T10:58:04.351Z,97165.69
2022-11-12T11:03:36.121Z,97164.84
2022-11-12T11:09:16.975Z,97155.03
2022-11-12T11:14:37.189Z,97144.31
2022-11-12T11:19:56.852Z,97145.94
2022-11-12T11:25:26.968Z,97157.22
2022-11-12T11:31:17.684Z,97159.31
2022-11-12T11:37:04.493Z,97146.34
2022-11-12T11:42:52.023Z,97141.56
2022-11-12T11:48:22.032Z,97124.44
2022-11-12T11:54:00.735Z,97128.00
2022-11-12T11:59:45.684Z,97108.63
2022-11-12T12:05:17.776Z,97111.06
2022-11-12T12:11:11.254Z,97103.75
2022-11-12T12:16:58.003Z,97101.88
2022-11-12T12:22:24.595Z,97095.50
2022-11-12T12:27:53.840Z,97095.50
2022-11-12T12:33:35.994Z,97083.06
2022-11-12T12:39:18.663Z,97087.00
2022-11-12T12:44:45.537Z,97080.63
2022-11-12T12:50:11.938Z,97069.47
2022-11-12T12:55:40.344Z,97056.00
2022-11-12T13:01:02.474Z,97057.91
2022-11-12T13:06:22.675Z,97048.97
2022-11-12T13:11:42.473Z,97045.31
2022-11-12T13:17:08.318Z,97043.91
2022-11-12T13:22:28.011Z,97040.97
2022-11-12T13:27:47.729Z,97047.84
2022-11-12T13:33:22.726Z,97045.88
2022-11-12T13:38:42.508Z,97037.84
2022-11-12T13:44:07.429Z,97022.63
2022-11-12T13:49:27.254Z,97015.09
2022-11-12T13:54:46.922Z,97028.97
2022-11-12T14:00:18.780Z,97026.69
2022-11-12T14:05:38.803Z,97029.34
2022-11-12T14:11:06.093Z,97023.50
2022-11-12T14:16:37.832Z,97018.34
2022-11-12T14:22:02.117Z,97015.28
2022-11-12T14:27:28.196Z,97023.28
2022-11-12T14:32:54.203Z,97023.19
2022-11-12T14:38:25.151Z,97031.19
2022-11-12T14:44:10.887Z,97017.41
2022-11-12T14:49:44.290Z,97019.47
2022-11-12T14:55:14.737Z,97018.22
2022-11-12T15:00:41.978Z,97006.94
2022-11-12T15:06:02.042Z,97006.50
2022-11-12T15:11:25.803Z,96995.88
2022-11-12T15:16:46.188Z,96985.72
2022-11-12T15:22:05.885Z,96986.66
2022-11-12T15:27:41.160Z,96984.75
2022-11-12T15:33:13.386Z,96988.25
2022-11-12T15:38:35.854Z,96987.75
2022-11-12T15:43:56.555Z,96977.03
2022-11-12T15:49:16.794Z,96974.78
2022-11-12T15:54:40.877Z,96976.03
2022-11-12T16:00:08.375Z,96967.75
2022-11-12T16:05:29.059Z,96959.22
2022-11-12T16:10:49.407Z,96952.94
2022-11-12T16:16:11.765Z,96964.13
2022-11-12T16:21:31.503Z,96944.69
2022-11-12T16:26:51.760Z,96946.78
2022-11-12T16:32:13.711Z,96937.34
2022-11-12T16:37:33.819Z,96951.63
2022-11-12T16:42:54.157Z,96937.34
2022-11-12T16:48:22.205Z,96930.59
2022-11-12T16:53:42.458Z,96930.41
2022-11-12T16:59:02.216Z,96941.69
2022-11-12T17:04:24.486Z,96936.06
2022-11-12T17:09:44.421Z,96931.16
2022-11-12T17:15:05.551Z,96933.03
2022-11-12T17:20:25.598Z,96928.22
2022-11-12T17:25:45.313Z,96931.16
2022-11-12T17:31:06.154Z,96936.59
2022-11-12T17:36:26.910Z,96925.41
2022-11-12T17:41:46.656Z,96925.53
2022-11-12T17:47:06.458Z,96921.97
2022-11-12T17:52:26.433Z,96919.34
2022-11-12T17:57:48.619Z,96915.38
2022-11-12T18:03:08.520Z,96907.88
2022-11-12T18:08:28.326Z,96910.88
2022-11-12T18:13:48.264Z,96906.28
2022-11-12T18:19:08.412Z,96905.75
2022-11-12T18:24:28.553Z,96895.31
2022-11-12T18:29:48.412Z,96891.81
2022-11-12T18:35:08.438Z,96897.66
2022-11-12T18:40:29.162Z,96883.47
2022-11-12T18:45:56.542Z,96873.69
2022-11-12T18:51:19.254Z,96865.03
2022-11-12T18:56:39.057Z,96853.97
2022-11-12T19:01:59.160Z,96845.44
2022-11-12T19:07:19.399Z,96848.16
2022-11-12T19:12:39.688Z,96848.25
2022-11-12T19:18:00.330Z,96838.03
2022-11-12T19:23:20.495Z,96841.19
2022-11-12T19:28:40.950Z,96841.88
2022-11-12T19:34:01.125Z,96848.28
2022-11-12T19:39:20.884Z,96844.31
2022-11-12T19:44:40.914Z,96844.03
2022-11-12T19:50:00.927Z,96844.78
2022-11-12T19:55:20.774Z,96843.94
2022-11-12T20:00:40.621Z,96840.72
2022-11-12T20:06:03.565Z,96842.41
2022-11-12T20:11:23.362Z,96831.16
2022-11-12T20:16:43.193Z,96838.88
2022-11-12T20:22:03.092Z,96838.13
2022-11-12T20:27:23.104Z,96834.66
2022-11-12T20:32:42.794Z,96831.56
2022-11-12T20:38:04.049Z,96818.50
2022-11-12T20:43:28.929Z,96805.44
2022-11-12T20:48:49.369Z,96796.06
2022-11-12T20:54:09.235Z,96799.25
2022-11-12T20:59:29.245Z,96793.44
2022-11-12T21:04:49.259Z,96783.59
2022-11-12T21:10:09.251Z,96778.69
2022-11-12T21:15:29.193Z,96784.59
2022-11-12T21:20:49.090Z,96776.44
2022-11-12T21:26:17.734Z,96769.31
2022-11-12T21:31:37.690Z,96757.31
2022-11-12T21:36:57.736Z,96757.31
2022-11-12T21:42:17.597Z,96748.06
2022-11-12T21:47:37.474Z,96741.78
2022-11-12T21:52:57.533Z,96739.25
2022-11-12T21:58:17.387Z,96730.25
2022-11-12T22:03:38.161Z,96736.75
2022-11-12T22:08:58.342Z,96724.34
2022-11-12T22:14:18.414Z,96718.88
2022-11-12T22:19:38.190Z,96716.81
2022-11-12T22:24:58.081Z,96714.34
2022-11-12T22:30:18.104Z,96708.94
2022-11-12T22:35:37.977Z,96697.00
2022-11-12T22:41:06.309Z,96692.34
2022-11-12T22:46:29.158Z,96685.00
2022-11-12T22:51:48.963Z,96685.41
2022-11-12T22:57:08.740Z,96679.19
2022-11-12T23:02:28.453Z,96684.66
2022-11-12T23:07:48.265Z,96675.25
2022-11-12T23:13:07.952Z,96655.34
2022-11-12T23:18:28.438Z,96655.78
2022-11-12T23:23:48.843Z,96658.44
2022-11-12T23:29:11.260Z,96648.38
2022-11-12T23:34:31.339Z,96638.91
2022-11-12T23:39:51.163Z,96632.75
2022-11-12T23:45:10.919Z,96626.19
2022-11-12T23:50:30.785Z,96623.66
2022-11-12T23:55:50.579Z,96616.50
